Time;durP1;ratioP1;P1;durP2;ratioP2;P2;SDS_P1;SDS_P2;PMS_P1;PMS_P2;Temp;Humidity;BMP_temperature;BMP_pressure;BME280_temperature;BME280_humidity;BME280_pressure;Samples;Min_cycle;Max_cycle;Signal;HPM_P1;HPM_P2
2022/05/27 00:00:17;;;;;;;0.00;0.00;;;14.00;90.30;;;;;;5018877;28;20045;-69
2022/05/27 00:02:43;;;;;;;0.00;0.00;;;14.00;90.30;;;;;;5028944;28;20485;-69
2022/05/27 00:05:09;;;;;;;0.00;0.00;;;14.00;90.10;;;;;;5028816;28;20522;-69
2022/05/27 00:07:35;;;;;;;0.00;0.00;;;14.00;90.30;;;;;;5025544;28;20046;-69
2022/05/27 00:10:00;;;;;;;0.65;0.65;;;14.00;90.30;;;;;;5028745;28;20129;-69
2022/05/27 00:12:26;;;;;;;0.50;0.35;;;13.90;90.20;;;;;;5029322;28;20048;-69
2022/05/27 00:14:52;;;;;;;0.00;0.00;;;13.90;90.20;;;;;;5029184;28;20061;-69
2022/05/27 00:17:17;;;;;;;0.30;0.30;;;13.80;90.40;;;;;;5026084;28;20115;-69
2022/05/27 00:19:43;;;;;;;1.85;1.58;;;13.80;90.40;;;;;;5028993;28;20077;-69
2022/05/27 00:22:09;;;;;;;0.08;0.08;;;13.70;90.10;;;;;;5027366;28;20060;-68
2022/05/27 00:24:36;;;;;;;0.00;0.00;;;13.70;90.30;;;;;;5028774;28;20045;-69
2022/05/27 00:27:02;;;;;;;0.30;0.30;;;13.60;90.30;;;;;;5026950;28;20081;-69
2022/05/27 00:29:28;;;;;;;0.00;0.00;;;13.60;90.30;;;;;;5028141;28;20092;-69
2022/05/27 00:31:54;;;;;;;1.10;1.10;;;13.60;90.20;;;;;;5028624;28;20057;-69
2022/05/27 00:34:19;;;;;;;0.00;0.00;;;13.50;90.30;;;;;;5025312;28;20037;-69
2022/05/27 00:36:45;;;;;;;0.00;0.00;;;13.50;90.30;;;;;;5021706;28;20065;-68
2022/05/27 00:39:10;;;;;;;0.00;0.00;;;13.50;90.30;;;;;;5027592;28;20088;-69
2022/05/27 00:41:36;;;;;;;8.05;2.10;;;13.40;90.30;;;;;;5028901;28;20042;-68
2022/05/27 00:44:02;;;;;;;0.80;0.80;;;13.40;90.40;;;;;;5028360;28;20536;-68
2022/05/27 00:46:30;;;;;;;0.35;0.35;;;13.40;90.40;;;;;;5028829;28;20096;-68
2022/05/27 00:49:08;;;;;;;0.00;0.00;;;13.40;90.40;;;;;;5025472;28;20046;-68
2022/05/27 00:51:44;;;;;;;0.00;0.00;;;13.40;90.40;;;;;;5012106;28;20116;-69
2022/05/27 00:54:14;;;;;;;0.10;0.10;;;13.30;90.30;;;;;;5028048;28;20045;-69
2022/05/27 00:56:43;;;;;;;0.40;0.38;;;13.30;90.30;;;;;;5026498;28;20102;-69
2022/05/27 00:59:27;;;;;;;0.30;0.30;;;13.20;90.20;;;;;;5026996;28;20456;-68
2022/05/27 01:01:53;;;;;;;0.00;0.00;;;13.20;90.00;;;;;;5027531;28;20045;-69
2022/05/27 01:04:20;;;;;;;0.00;0.00;;;13.20;89.80;;;;;;5028035;28;20037;-69
2022/05/27 01:06:46;;;;;;;0.00;0.00;;;13.20;89.80;;;;;;5027708;28;20033;-69
2022/05/27 01:09:13;;;;;;;0.08;0.08;;;13.10;89.70;;;;;;5026841;28;20058;-69
2022/05/27 01:11:48;;;;;;;0.00;0.00;;;13.10;89.70;;;;;;5011839;28;20418;-68
2022/05/27 01:14:23;;;;;;;0.00;0.00;;;13.10;89.60;;;;;;5009696;28;20466;-68
2022/05/27 01:17:12;;;;;;;0.00;0.00;;;13.00;89.60;;;;;;5028592;28;20096;-69
2022/05/27 01:20:18;;;;;;;0.00;0.00;;;12.90;89.50;;;;;;5026693;28;20068;-69
2022/05/27 01:23:20;;;;;;;0.00;0.00;;;12.90;89.30;;;;;;5015846;28;20150;-69
2022/05/27 01:26:04;;;;;;;0.00;0.00;;;12.80;89.30;;;;;;5025684;28;20571;-68
2022/05/27 01:28:51;;;;;;;0.00;0.00;;;12.80;89.20;;;;;;5022023;28;20412;-68
2022/05/27 01:31:16;;;;;;;0.03;0.03;;;12.80;89.00;;;;;;5024683;28;20041;-69
2022/05/27 01:33:57;;;;;;;0.00;0.00;;;12.80;89.10;;;;;;5028160;28;20390;-69
2022/05/27 01:36:41;;;;;;;0.00;0.00;;;12.80;89.00;;;;;;5028198;28;20850;-69
2022/05/27 01:39:17;;;;;;;0.00;0.00;;;12.70;89.00;;;;;;5009817;28;20044;-69
2022/05/27 01:42:03;;;;;;;0.00;0.00;;;12.70;88.90;;;;;;5026303;28;20088;-69
2022/05/27 01:44:37;;;;;;;0.00;0.00;;;12.70;88.80;;;;;;5018216;28;20046;-69
2022/05/27 01:47:05;;;;;;;0.00;0.00;;;12.60;88.80;;;;;;5031071;28;20049;-68
2022/05/27 01:49:58;;;;;;;0.00;0.00;;;12.70;88.70;;;;;;5030123;28;20077;-69
2022/05/27 01:52:38;;;;;;;0.00;0.00;;;12.60;88.60;;;;;;5031763;28;20494;-68
2022/05/27 01:55:18;;;;;;;0.00;0.00;;;12.60;88.50;;;;;;5026406;28;20052;-69
2022/05/27 01:57:57;;;;;;;0.00;0.00;;;12.60;88.50;;;;;;5023417;28;20053;-68
2022/05/27 02:00:25;;;;;;;0.00;0.00;;;12.60;88.50;;;;;;5016396;28;20046;-68
2022/05/27 02:03:10;;;;;;;0.00;0.00;;;12.70;88.40;;;;;;5031580;28;20125;-69
2022/05/27 02:05:54;;;;;;;0.00;0.00;;;12.60;88.10;;;;;;5030780;28;20434;-69
2022/05/27 02:08:48;;;;;;;0.00;0.00;;;12.60;88.10;;;;;;5026065;28;20050;-69
2022/05/27 02:11:17;;;;;;;0.00;0.00;;;12.60;88.10;;;;;;5026770;28;20103;-69
2022/05/27 02:14:00;;;;;;;0.00;0.00;;;12.60;87.80;;;;;;5030237;28;20048;-68
2022/05/27 02:16:44;;;;;;;0.00;0.00;;;12.50;87.70;;;;;;5027601;28;20823;-68
2022/05/27 02:19:22;;;;;;;0.00;0.00;;;12.50;88.00;;;;;;5025358;28;20045;-68
2022/05/27 02:21:53;;;;;;;0.20;0.20;;;12.50;88.00;;;;;;5030336;28;20052;-69
2022/05/27 02:24:48;;;;;;;0.00;0.00;;;12.40;87.90;;;;;;5026220;28;20891;-69
2022/05/27 02:27:31;;;;;;;0.00;0.00;;;12.40;87.90;;;;;;5017967;28;20052;-69
2022/05/27 02:30:01;;;;;;;0.00;0.00;;;12.40;87.90;;;;;;5029455;28;20045;-69
2022/05/27 02:32:35;;;;;;;0.00;0.00;;;12.30;87.80;;;;;;5043343;28;20524;-69
2022/05/27 02:35:17;;;;;;;0.20;0.20;;;12.40;87.80;;;;;;5028312;28;20037;-69
2022/05/27 02:37:49;;;;;;;0.00;0.00;;;12.40;87.80;;;;;;5024937;28;20042;-69
2022/05/27 02:40:18;;;;;;;0.00;0.00;;;12.40;87.80;;;;;;5020235;28;20094;-69
2022/05/27 02:43:11;;;;;;;0.00;0.00;;;12.40;87.70;;;;;;5015144;28;20049;-69
2022/05/27 02:45:53;;;;;;;0.10;0.10;;;12.40;87.70;;;;;;5023082;28;20507;-69
2022/05/27 02:48:59;;;;;;;0.00;0.00;;;12.40;87.60;;;;;;5025741;28;20772;-69
2022/05/27 02:51:45;;;;;;;0.00;0.00;;;12.30;87.60;;;;;;5024502;28;20064;-70
2022/05/27 02:54:31;;;;;;;0.08;0.08;;;12.30;87.40;;;;;;5029691;28;20051;-69
2022/05/27 02:57:02;;;;;;;0.00;0.00;;;12.20;87.30;;;;;;5026390;28;20101;-69
2022/05/27 02:59:30;;;;;;;0.00;0.00;;;12.20;87.40;;;;;;5026754;28;20069;-69
2022/05/27 03:02:13;;;;;;;0.43;0.43;;;12.20;87.30;;;;;;5030438;28;20052;-69
2022/05/27 03:04:46;;;;;;;0.00;0.00;;;12.20;87.40;;;;;;5022975;28;20107;-69
2022/05/27 03:07:49;;;;;;;0.10;0.10;;;12.20;87.40;;;;;;5027356;28;20521;-69
2022/05/27 03:10:28;;;;;;;0.00;0.00;;;12.10;87.50;;;;;;5030218;28;20053;-69
2022/05/27 03:13:16;;;;;;;0.00;0.00;;;12.10;87.50;;;;;;5027033;28;20049;-69
2022/05/27 03:15:52;;;;;;;0.20;0.20;;;12.10;87.50;;;;;;5035257;28;20041;-69
2022/05/27 03:18:42;;;;;;;0.43;0.43;;;12.10;87.40;;;;;;5034790;28;20633;-69
2022/05/27 03:21:18;;;;;;;0.00;0.00;;;12.10;87.40;;;;;;5029479;28;20088;-69
2022/05/27 03:24:12;;;;;;;0.00;0.00;;;12.10;87.50;;;;;;5029831;28;20041;-69
2022/05/27 03:26:46;;;;;;;0.00;0.00;;;12.00;87.50;;;;;;5015879;28;20085;-68
2022/05/27 03:29:40;;;;;;;0.00;0.00;;;12.00;87.50;;;;;;5029819;28;20510;-69
2022/05/27 03:32:30;;;;;;;0.00;0.00;;;12.00;87.40;;;;;;5033597;28;20132;-69
2022/05/27 03:35:13;;;;;;;0.00;0.00;;;12.00;87.30;;;;;;5043385;28;20037;-69
2022/05/27 03:38:00;;;;;;;0.00;0.00;;;12.00;87.00;;;;;;5029551;28;20131;-69
2022/05/27 03:40:35;;;;;;;0.00;0.00;;;11.90;86.60;;;;;;5029491;28;20041;-69
2022/05/27 03:43:02;;;;;;;0.00;0.00;;;11.90;86.30;;;;;;5026897;28;20469;-69
2022/05/27 03:45:28;;;;;;;0.00;0.00;;;12.00;86.20;;;;;;5030878;28;20106;-69
2022/05/27 03:47:53;;;;;;;0.00;0.00;;;11.90;85.40;;;;;;5029698;28;20132;-68
2022/05/27 03:50:25;;;;;;;0.00;0.00;;;11.80;84.70;;;;;;5030404;28;20564;-69
2022/05/27 03:52:54;;;;;;;0.00;0.00;;;11.90;84.40;;;;;;5029275;28;20422;-69
2022/05/27 03:55:24;;;;;;;0.00;0.00;;;11.80;83.60;;;;;;5029571;28;20124;-69
2022/05/27 03:57:49;;;;;;;0.00;0.00;;;11.80;82.80;;;;;;5029429;28;20842;-69
2022/05/27 04:00:16;;;;;;;0.00;0.00;;;11.90;82.80;;;;;;5030349;28;20045;-69
2022/05/27 04:02:43;;;;;;;0.00;0.00;;;11.90;82.80;;;;;;5028928;28;20514;-69
2022/05/27 04:05:11;;;;;;;1.70;1.60;;;11.90;82.00;;;;;;5029271;28;20041;-69
2022/05/27 04:07:37;;;;;;;1.27;1.17;;;11.90;81.80;;;;;;5028921;28;20056;-69
2022/05/27 04:10:03;;;;;;;0.57;0.57;;;11.90;81.10;;;;;;5008523;28;20050;-69
2022/05/27 04:12:29;;;;;;;0.00;0.00;;;11.90;80.80;;;;;;5008061;28;20054;-69
2022/05/27 04:14:55;;;;;;;0.00;0.00;;;11.90;80.80;;;;;;5008420;28;20042;-69
2022/05/27 04:17:32;;;;;;;0.00;0.00;;;12.00;80.80;;;;;;5009960;28;20104;-69
2022/05/27 04:20:09;;;;;;;0.10;0.10;;;12.00;80.50;;;;;;5009292;28;20037;-69
2022/05/27 04:22:35;;;;;;;0.00;0.00;;;12.00;80.70;;;;;;5008964;28;20042;-69
2022/05/27 04:25:01;;;;;;;0.00;0.00;;;12.00;80.20;;;;;;5009336;28;20495;-69
2022/05/27 04:27:28;;;;;;;0.10;0.10;;;12.00;80.30;;;;;;5008694;28;20054;-69
2022/05/27 04:29:54;;;;;;;1.08;0.57;;;11.90;79.40;;;;;;5008599;28;20054;-69
2022/05/27 04:32:22;;;;;;;0.00;0.00;;;12.10;80.30;;;;;;5009428;28;20506;-69
2022/05/27 04:34:49;;;;;;;0.00;0.00;;;12.10;80.20;;;;;;5009423;28;20107;-70
2022/05/27 04:37:15;;;;;;;0.00;0.00;;;12.00;80.40;;;;;;5009013;28;20098;-69
2022/05/27 04:39:41;;;;;;;0.08;0.08;;;12.10;80.40;;;;;;5009283;28;20095;-68
2022/05/27 04:42:06;;;;;;;0.40;0.40;;;12.00;80.60;;;;;;5008996;28;20046;-68
2022/05/27 04:44:33;;;;;;;0.00;0.00;;;12.10;80.80;;;;;;5008376;28;20407;-68
2022/05/27 04:46:59;;;;;;;0.00;0.00;;;12.10;80.80;;;;;;5008692;28;20088;-69
2022/05/27 04:49:58;;;;;;;0.00;0.00;;;12.10;80.70;;;;;;5008246;28;20454;-68
2022/05/27 04:52:22;;;;;;;3.10;1.55;;;12.10;81.20;;;;;;4990665;28;20051;-69
2022/05/27 04:54:49;;;;;;;0.00;0.00;;;12.10;81.30;;;;;;4994562;28;20095;-68
2022/05/27 04:57:17;;;;;;;0.00;0.00;;;12.10;81.60;;;;;;5008675;28;20053;-69
2022/05/27 04:59:46;;;;;;;2.22;0.88;;;12.10;81.30;;;;;;5008674;28;20121;-69
2022/05/27 05:02:13;;;;;;;0.00;0.00;;;12.10;81.40;;;;;;5008490;28;20513;-69
2022/05/27 05:04:39;;;;;;;0.00;0.00;;;12.10;81.40;;;;;;5008784;28;20495;-69
2022/05/27 05:07:08;;;;;;;0.20;0.20;;;12.10;81.70;;;;;;5007547;28;20088;-69
2022/05/27 05:09:35;;;;;;;0.03;0.03;;;12.10;81.50;;;;;;5024300;28;20049;-69
2022/05/27 05:12:01;;;;;;;0.00;0.00;;;12.20;81.20;;;;;;5024140;28;20053;-68
2022/05/27 05:14:27;;;;;;;0.17;0.17;;;12.30;79.40;;;;;;5018567;28;20049;-67
2022/05/27 05:16:52;;;;;;;0.00;0.00;;;12.40;79.50;;;;;;5026659;28;20476;-66
2022/05/27 05:19:18;;;;;;;0.00;0.00;;;12.40;79.10;;;;;;5028910;28;20037;-66
2022/05/27 05:21:43;;;;;;;0.03;0.03;;;12.50;77.50;;;;;;5031593;28;20045;-67
2022/05/27 05:24:09;;;;;;;0.00;0.00;;;12.50;76.50;;;;;;5031630;28;20042;-67
2022/05/27 05:26:35;;;;;;;1.13;0.73;;;12.50;76.70;;;;;;5032006;28;20041;-68
2022/05/27 05:29:01;;;;;;;0.00;0.00;;;12.60;76.60;;;;;;5031439;28;20124;-68
2022/05/27 05:31:26;;;;;;;0.00;0.00;;;12.60;76.40;;;;;;5032347;28;20463;-68
2022/05/27 05:33:52;;;;;;;0.00;0.00;;;12.60;76.10;;;;;;5031866;28;20423;-67
2022/05/27 05:36:18;;;;;;;0.00;0.00;;;12.60;76.90;;;;;;5031993;28;20041;-68
2022/05/27 05:38:43;;;;;;;0.45;0.45;;;12.60;76.50;;;;;;5014205;28;20041;-68
2022/05/27 05:41:09;;;;;;;0.00;0.00;;;12.60;76.80;;;;;;5031906;28;20041;-67
2022/05/27 05:43:34;;;;;;;0.90;0.90;;;12.60;76.00;;;;;;5031026;28;20141;-66
2022/05/27 05:46:00;;;;;;;0.00;0.00;;;12.60;76.30;;;;;;5029471;28;20060;-67
2022/05/27 05:48:26;;;;;;;0.00;0.00;;;12.60;76.00;;;;;;5022453;28;20456;-68
2022/05/27 05:50:52;;;;;;;0.00;0.00;;;12.60;74.90;;;;;;5029218;28;20041;-69
2022/05/27 05:53:21;;;;;;;0.00;0.00;;;12.70;72.90;;;;;;5030694;28;20037;-68
2022/05/27 05:55:46;;;;;;;0.10;0.10;;;12.70;72.90;;;;;;5030707;28;20045;-68
2022/05/27 05:58:12;;;;;;;0.25;0.25;;;12.80;72.50;;;;;;5031194;28;20394;-68
2022/05/27 06:00:37;;;;;;;0.00;0.00;;;12.80;72.90;;;;;;5030332;28;20058;-69
2022/05/27 06:03:03;;;;;;;0.00;0.00;;;12.80;72.60;;;;;;5028885;28;20077;-69
2022/05/27 06:05:29;;;;;;;0.30;0.30;;;12.80;72.50;;;;;;5030642;28;20042;-68
2022/05/27 06:07:57;;;;;;;0.00;0.00;;;12.80;72.40;;;;;;5029958;28;20116;-69
2022/05/27 06:10:23;;;;;;;0.00;0.00;;;12.80;71.40;;;;;;5029537;28;20045;-68
2022/05/27 06:12:49;;;;;;;0.00;0.00;;;12.90;71.80;;;;;;5030845;28;20083;-68
2022/05/27 06:15:15;;;;;;;0.00;0.00;;;12.90;67.90;;;;;;5029058;28;20034;-68
2022/05/27 06:17:41;;;;;;;0.35;0.35;;;12.90;67.10;;;;;;5030362;28;20056;-68
2022/05/27 06:20:08;;;;;;;0.00;0.00;;;12.90;68.30;;;;;;5029913;28;20117;-69
2022/05/27 06:22:34;;;;;;;0.05;0.05;;;12.90;68.20;;;;;;5029441;28;20046;-69
2022/05/27 06:25:00;;;;;;;0.00;0.00;;;12.90;68.10;;;;;;5028222;28;20111;-68
2022/05/27 06:27:26;;;;;;;0.00;0.00;;;13.00;67.90;;;;;;5030825;28;20068;-69
2022/05/27 06:35:21;;;;;;;0.00;0.00;;;13.10;66.90;;;;;;5029274;28;20049;-68
2022/05/27 06:37:48;;;;;;;0.00;0.00;;;13.10;67.10;;;;;;5028093;28;20043;-69
2022/05/27 06:40:13;;;;;;;2.25;1.25;;;13.10;67.40;;;;;;5028731;28;20046;-68
2022/05/27 06:42:39;;;;;;;0.03;0.03;;;13.20;67.60;;;;;;5026091;28;20042;-68
2022/05/27 06:45:07;;;;;;;7.43;1.38;;;13.40;67.00;;;;;;5022482;28;20037;-69
2022/05/27 06:47:32;;;;;;;0.00;0.00;;;13.50;66.50;;;;;;5030380;28;20048;-69
2022/05/27 06:49:58;;;;;;;0.00;0.00;;;13.50;64.70;;;;;;5030454;28;20045;-68
2022/05/27 06:52:24;;;;;;;8.60;3.13;;;13.50;65.90;;;;;;5029784;28;20533;-68
2022/05/27 06:54:51;;;;;;;0.00;0.00;;;13.40;65.50;;;;;;5026982;28;20160;-68
2022/05/27 06:57:16;;;;;;;0.00;0.00;;;13.30;67.30;;;;;;5017515;28;20499;-68
2022/05/27 06:59:42;;;;;;;10.95;2.95;;;13.30;67.10;;;;;;5028659;28;20049;-69
2022/05/27 07:02:09;;;;;;;0.00;0.00;;;13.30;68.10;;;;;;5014337;28;20045;-68
2022/05/27 07:04:35;;;;;;;0.00;0.00;;;13.50;68.10;;;;;;5019961;28;20041;-68
2022/05/27 07:07:01;;;;;;;0.10;0.10;;;13.50;67.30;;;;;;5022952;28;20069;-67
2022/05/27 07:09:27;;;;;;;0.00;0.00;;;13.50;68.10;;;;;;5028738;28;20085;-68
2022/05/27 07:11:55;;;;;;;0.00;0.00;;;13.50;65.60;;;;;;5029667;28;20467;-68
2022/05/27 07:14:21;;;;;;;0.00;0.00;;;13.40;63.40;;;;;;5029985;28;20140;-68
2022/05/27 07:16:48;;;;;;;0.20;0.20;;;13.40;63.10;;;;;;5029493;28;20473;-67
2022/05/27 07:19:15;;;;;;;0.00;0.00;;;13.50;63.40;;;;;;5025293;28;20042;-67
2022/05/27 07:21:43;;;;;;;0.10;0.10;;;13.60;64.00;;;;;;5011743;28;20041;-67
2022/05/27 07:24:13;;;;;;;0.00;0.00;;;13.60;65.10;;;;;;5016593;28;20037;-66
2022/05/27 07:26:39;;;;;;;0.00;0.00;;;13.50;64.20;;;;;;5009470;28;20064;-66
2022/05/27 07:29:05;;;;;;;0.57;0.57;;;13.30;63.80;;;;;;5010690;28;20086;-66
2022/05/27 07:31:32;;;;;;;0.00;0.00;;;13.20;64.70;;;;;;5028232;28;20048;-66
2022/05/27 07:33:58;;;;;;;0.00;0.00;;;13.20;64.00;;;;;;5041876;28;20819;-66
2022/05/27 07:36:23;;;;;;;0.03;0.03;;;13.20;63.60;;;;;;5029241;28;20046;-67
2022/05/27 07:38:51;;;;;;;0.10;0.10;;;13.40;63.70;;;;;;5038010;28;20045;-67
2022/05/27 07:41:17;;;;;;;0.10;0.10;;;13.30;63.00;;;;;;5048722;28;20041;-67
2022/05/27 07:43:44;;;;;;;0.10;0.10;;;13.20;63.70;;;;;;5029917;28;20041;-66
2022/05/27 07:46:11;;;;;;;0.00;0.00;;;13.30;64.20;;;;;;5039796;28;20048;-66
2022/05/27 07:48:37;;;;;;;0.10;0.10;;;13.40;65.40;;;;;;5037285;28;20044;-66
2022/05/27 07:51:02;;;;;;;0.20;0.20;;;13.40;64.50;;;;;;5029213;28;20049;-67
2022/05/27 07:53:28;;;;;;;0.05;0.05;;;13.40;62.00;;;;;;5028642;28;20055;-67
2022/05/27 07:55:53;;;;;;;0.00;0.00;;;13.40;62.90;;;;;;5029312;28;20084;-65
2022/05/27 07:58:19;;;;;;;0.00;0.00;;;13.40;64.50;;;;;;5030695;28;20041;-67
2022/05/27 08:00:45;;;;;;;0.50;0.50;;;13.40;63.10;;;;;;5048671;28;20049;-67
2022/05/27 08:03:11;;;;;;;0.10;0.10;;;13.30;63.10;;;;;;5027646;28;20049;-67
2022/05/27 08:05:39;;;;;;;0.15;0.15;;;13.30;63.30;;;;;;5029257;28;20137;-67
2022/05/27 08:08:04;;;;;;;0.00;0.00;;;13.30;63.30;;;;;;5029221;28;20051;-67
2022/05/27 08:10:33;;;;;;;0.80;0.80;;;13.40;64.60;;;;;;5030710;28;20101;-66
2022/05/27 08:13:00;;;;;;;0.05;0.05;;;13.50;63.60;;;;;;5031701;28;20037;-67
2022/05/27 08:15:26;;;;;;;0.28;0.28;;;13.50;63.60;;;;;;5033908;28;20409;-67
2022/05/27 08:17:52;;;;;;;0.10;0.10;;;13.60;63.00;;;;;;5029393;28;20077;-66
2022/05/27 08:20:22;;;;;;;0.10;0.10;;;13.70;62.10;;;;;;5027678;28;20033;-66
2022/05/27 08:22:49;;;;;;;0.80;0.77;;;13.60;61.40;;;;;;5028532;28;20126;-67
2022/05/27 08:25:15;;;;;;;0.52;0.52;;;13.70;62.60;;;;;;5027225;28;20076;-66
2022/05/27 08:27:41;;;;;;;0.10;0.10;;;13.70;61.30;;;;;;5028462;28;20041;-66
2022/05/27 08:30:10;;;;;;;0.00;0.00;;;13.70;63.30;;;;;;5025705;28;20048;-66
2022/05/27 08:32:36;;;;;;;1.55;1.38;;;13.80;63.80;;;;;;5028779;28;20049;-66
2022/05/27 08:38:01;;;;;;;0.22;0.22;;;13.60;63.00;;;;;;5027506;28;20469;-66
2022/05/27 08:40:48;;;;;;;0.00;0.00;;;13.60;62.30;;;;;;5027350;28;20046;-66
2022/05/27 08:43:35;;;;;;;0.00;0.00;;;13.60;62.70;;;;;;5025015;28;20042;-66
2022/05/27 08:46:19;;;;;;;1.13;1.02;;;13.70;63.70;;;;;;5026336;28;20486;-68
2022/05/27 08:48:49;;;;;;;0.80;0.45;;;13.90;62.30;;;;;;5026757;28;20548;-66
2022/05/27 08:51:24;;;;;;;0.00;0.00;;;13.80;60.30;;;;;;5023654;28;20038;-65
2022/05/27 08:53:58;;;;;;;0.20;0.20;;;13.80;60.20;;;;;;5022577;28;20065;-65
2022/05/27 08:59:26;;;;;;;0.10;0.10;;;13.90;62.90;;;;;;5026244;28;20038;-66
2022/05/27 09:01:55;;;;;;;0.43;0.43;;;14.10;62.20;;;;;;5030847;28;20041;-67
2022/05/27 09:04:27;;;;;;;0.00;0.00;;;14.00;62.20;;;;;;5014534;28;20129;-67
2022/05/27 09:07:20;;;;;;;0.10;0.10;;;13.90;61.80;;;;;;5030076;28;20037;-67
2022/05/27 09:09:46;;;;;;;0.00;0.00;;;13.90;61.50;;;;;;5027337;28;20057;-67
2022/05/27 09:12:38;;;;;;;0.00;0.00;;;13.90;62.40;;;;;;5014992;28;20049;-68
2022/05/27 09:15:46;;;;;;;0.00;0.00;;;14.00;62.10;;;;;;5014059;28;20042;-66
2022/05/27 09:18:48;;;;;;;4.22;3.47;;;14.00;60.20;;;;;;5010442;28;20050;-67
2022/05/27 09:21:36;;;;;;;0.00;0.00;;;13.90;61.00;;;;;;5032554;28;20116;-68
2022/05/27 09:24:40;;;;;;;0.00;0.00;;;13.80;62.50;;;;;;5032594;28;20045;-68
2022/05/27 09:27:14;;;;;;;0.00;0.00;;;13.90;62.40;;;;;;5027673;28;20041;-68
2022/05/27 09:29:59;;;;;;;0.10;0.10;;;14.10;63.40;;;;;;5010936;28;20050;-67
2022/05/27 09:32:40;;;;;;;0.30;0.30;;;14.00;63.70;;;;;;5012961;28;20048;-68
2022/05/27 09:35:13;;;;;;;2.45;1.17;;;14.00;63.70;;;;;;5030165;28;20049;-70
2022/05/27 09:37:43;;;;;;;0.57;0.57;;;14.10;64.20;;;;;;5032436;28;20063;-68
2022/05/27 09:41:01;;;;;;;0.00;0.00;;;14.30;63.00;;;;;;5033088;28;20053;-68
2022/05/27 09:43:35;;;;;;;0.00;0.00;;;14.20;61.00;;;;;;5020211;28;20058;-67
2022/05/27 09:46:09;;;;;;;0.00;0.00;;;14.20;60.70;;;;;;5032504;28;20045;-68
2022/05/27 09:48:34;;;;;;;0.00;0.00;;;14.10;60.50;;;;;;5032646;28;20041;-68
2022/05/27 09:51:03;;;;;;;0.03;0.03;;;14.20;61.70;;;;;;5032995;28;20127;-68
2022/05/27 09:53:33;;;;;;;3.60;1.38;;;14.30;62.10;;;;;;5028916;28;20048;-67
2022/05/27 09:56:04;;;;;;;0.10;0.10;;;14.30;60.40;;;;;;5012938;28;20048;-68
2022/05/27 09:58:36;;;;;;;0.00;0.00;;;14.40;60.20;;;;;;5018821;28;20503;-67
2022/05/27 10:01:19;;;;;;;0.00;0.00;;;14.30;60.60;;;;;;5032159;28;20049;-67
2022/05/27 10:03:45;;;;;;;0.13;0.13;;;14.10;62.70;;;;;;5032612;28;20095;-67
2022/05/27 10:06:19;;;;;;;0.00;0.00;;;14.00;63.90;;;;;;5031241;28;20371;-68
2022/05/27 10:08:53;;;;;;;0.10;0.10;;;14.10;63.20;;;;;;5031564;28;20057;-67
2022/05/27 10:11:25;;;;;;;0.00;0.00;;;14.30;60.80;;;;;;5032770;28;20049;-68
2022/05/27 10:14:06;;;;;;;11.27;2.92;;;14.40;58.90;;;;;;5032560;28;20045;-67
2022/05/27 10:16:32;;;;;;;0.85;0.85;;;14.50;60.80;;;;;;5024186;28;20064;-67
2022/05/27 10:19:10;;;;;;;0.20;0.20;;;14.30;63.80;;;;;;5021127;28;20049;-68
2022/05/27 10:22:01;;;;;;;0.10;0.10;;;14.10;63.60;;;;;;5012755;28;20050;-67
2022/05/27 10:24:31;;;;;;;0.00;0.00;;;14.30;63.90;;;;;;5012083;28;20042;-68
2022/05/27 10:27:13;;;;;;;0.00;0.00;;;14.50;63.00;;;;;;5017089;28;20056;-68
2022/05/27 10:29:58;;;;;;;0.00;0.00;;;14.40;62.40;;;;;;5029064;28;20042;-67
2022/05/27 10:32:30;;;;;;;0.90;0.73;;;14.30;62.30;;;;;;5011919;28;20042;-68
2022/05/27 10:34:57;;;;;;;0.20;0.20;;;14.40;64.20;;;;;;5011239;28;20054;-67
2022/05/27 10:37:36;;;;;;;0.00;0.00;;;14.10;62.00;;;;;;5011111;28;20080;-68
2022/05/27 10:40:39;;;;;;;0.25;0.25;;;14.00;63.10;;;;;;5016302;28;20088;-68
2022/05/27 10:43:19;;;;;;;0.00;0.00;;;14.20;63.80;;;;;;5031483;28;20406;-68
2022/05/27 10:45:49;;;;;;;0.57;0.57;;;14.30;64.30;;;;;;5031470;28;20095;-67
2022/05/27 10:48:23;;;;;;;1.02;0.63;;;14.40;62.60;;;;;;5028962;28;20041;-67
2022/05/27 10:51:07;;;;;;;0.63;0.63;;;14.30;62.20;;;;;;5031591;28;20049;-67
2022/05/27 10:53:57;;;;;;;0.00;0.00;;;14.20;62.70;;;;;;5030794;28;20558;-67
2022/05/27 11:02:04;;;;;;;0.00;0.00;;;14.40;63.20;;;;;;5028450;28;20534;-67
2022/05/27 11:02:59;;;;;;;0.03;0.03;;;14.40;63.00;;;;;;5026835;28;20046;-67
2022/05/27 11:05:48;;;;;;;0.30;0.30;;;14.30;64.80;;;;;;5030508;28;20041;-68
2022/05/27 11:08:28;;;;;;;0.35;0.30;;;14.30;63.70;;;;;;5028378;28;20487;-67
2022/05/27 11:10:59;;;;;;;0.00;0.00;;;14.20;62.60;;;;;;5030105;28;20045;-67
2022/05/27 11:16:50;;;;;;;0.00;0.00;;;14.10;63.20;;;;;;5030956;28;20045;-67
2022/05/27 11:19:19;;;;;;;0.00;0.00;;;14.10;63.40;;;;;;5031081;28;20048;-67
2022/05/27 11:22:02;;;;;;;0.00;0.00;;;14.00;64.80;;;;;;5030399;28;20046;-67
2022/05/27 11:24:52;;;;;;;0.00;0.00;;;14.10;65.30;;;;;;5031273;28;20037;-67
2022/05/27 11:27:30;;;;;;;0.00;0.00;;;14.30;63.50;;;;;;5029677;28;20072;-67
2022/05/27 11:30:07;;;;;;;1.02;1.02;;;14.20;61.30;;;;;;5022116;28;20092;-67
2022/05/27 11:33:05;;;;;;;0.47;0.47;;;14.20;62.50;;;;;;5027168;28;20052;-66
2022/05/27 11:35:40;;;;;;;0.10;0.10;;;14.10;64.10;;;;;;5040702;28;20048;-66
2022/05/27 11:38:43;;;;;;;0.00;0.00;;;14.10;64.90;;;;;;5029849;28;20050;-66
2022/05/27 11:41:20;;;;;;;1.27;0.60;;;14.30;63.90;;;;;;5019884;28;20225;-67
2022/05/27 11:44:04;;;;;;;0.00;0.00;;;14.20;63.70;;;;;;5014168;28;20091;-66
2022/05/27 11:46:44;;;;;;;0.05;0.05;;;13.90;65.50;;;;;;5029810;28;20136;-66
2022/05/27 11:49:35;;;;;;;0.00;0.00;;;14.00;64.50;;;;;;5029252;28;20048;-66
2022/05/27 11:52:42;;;;;;;0.20;0.20;;;14.10;64.70;;;;;;5026803;28;20054;-66
2022/05/27 11:55:26;;;;;;;0.05;0.05;;;14.10;65.60;;;;;;5008828;28;20053;-66
2022/05/27 11:58:13;;;;;;;0.00;0.00;;;14.00;65.10;;;;;;5013789;28;20092;-66
2022/05/27 12:00:47;;;;;;;0.75;0.38;;;14.10;66.60;;;;;;5029463;28;20037;-67
2022/05/27 12:03:24;;;;;;;0.45;0.40;;;14.10;65.80;;;;;;5017736;28;20042;-66
2022/05/27 12:05:57;;;;;;;3.17;1.48;;;14.20;65.40;;;;;;5009578;28;20038;-67
2022/05/27 12:08:53;;;;;;;0.03;0.03;;;14.20;64.60;;;;;;5020130;28;20050;-67
2022/05/27 12:11:24;;;;;;;2.03;1.65;;;14.10;66.10;;;;;;5024976;28;20042;-66
2022/05/27 12:13:55;;;;;;;0.00;0.00;;;14.10;65.70;;;;;;5023425;28;20041;-67
2022/05/27 12:16:31;;;;;;;0.00;0.00;;;14.00;65.60;;;;;;5028170;28;20041;-66
2022/05/27 12:19:00;;;;;;;0.03;0.03;;;14.00;66.30;;;;;;5028054;28;20048;-65
2022/05/27 12:21:33;;;;;;;0.03;0.03;;;14.00;64.90;;;;;;5028383;28;20038;-66
2022/05/27 12:24:23;;;;;;;0.40;0.40;;;14.00;66.30;;;;;;5023516;28;20760;-66
2022/05/27 12:26:55;;;;;;;0.00;0.00;;;14.00;66.90;;;;;;5006604;28;20108;-66
2022/05/27 12:29:23;;;;;;;0.00;0.00;;;14.10;66.10;;;;;;5018318;28;20034;-66
2022/05/27 12:31:54;;;;;;;0.57;0.57;;;14.10;63.50;;;;;;5014578;28;20539;-67
2022/05/27 12:34:28;;;;;;;0.45;0.45;;;13.90;64.60;;;;;;5020405;28;20046;-66
2022/05/27 12:36:59;;;;;;;5.00;2.38;;;13.90;67.10;;;;;;5008794;28;20125;-66
2022/05/27 12:39:27;;;;;;;0.20;0.20;;;14.00;66.10;;;;;;5009482;28;20156;-66
2022/05/27 12:42:24;;;;;;;1.30;1.00;;;14.00;67.20;;;;;;5009576;28;20129;-66
2022/05/27 12:44:51;;;;;;;0.30;0.30;;;14.10;67.60;;;;;;5020916;28;20408;-66
2022/05/27 12:47:33;;;;;;;0.00;0.00;;;13.90;65.10;;;;;;5026603;28;20779;-67
2022/05/27 12:50:05;;;;;;;0.47;0.47;;;14.00;66.20;;;;;;5027952;28;20053;-66
2022/05/27 12:52:30;;;;;;;;;;;13.90;65.00;;;;;;5029031;28;20510;-66
2022/05/27 12:54:56;;;;;;;0.00;0.00;;;13.90;65.30;;;;;;5020414;28;19983;-66
2022/05/27 13:03:44;;;;;;;0.00;0.00;;;14.10;66.80;;;;;;5009345;28;20049;-66
2022/05/27 13:06:20;;;;;;;0.20;0.20;;;14.00;65.20;;;;;;5014201;28;20054;-66
2022/05/27 13:09:00;;;;;;;6.97;3.95;;;14.10;64.60;;;;;;5008588;28;20053;-66
2022/05/27 13:11:31;;;;;;;0.00;0.00;;;14.10;65.20;;;;;;5007807;28;20050;-67
2022/05/27 13:14:03;;;;;;;0.00;0.00;;;14.10;66.80;;;;;;5010178;28;20042;-67
2022/05/27 13:16:59;;;;;;;0.00;0.00;;;13.80;67.10;;;;;;5009061;28;20046;-66
2022/05/27 13:19:33;;;;;;;0.38;0.38;;;13.80;67.00;;;;;;5011945;28;20045;-66
2022/05/27 13:22:03;;;;;;;0.03;0.03;;;13.90;67.60;;;;;;5008911;28;20054;-66
2022/05/27 13:24:41;;;;;;;0.30;0.30;;;14.20;67.10;;;;;;5008704;28;20056;-66
2022/05/27 13:27:18;;;;;;;0.00;0.00;;;14.40;66.00;;;;;;5012277;28;20041;-66
2022/05/27 13:29:54;;;;;;;0.70;0.70;;;14.30;64.00;;;;;;5028399;28;20037;-67
2022/05/27 13:32:26;;;;;;;0.00;0.00;;;14.20;65.00;;;;;;5028334;28;20053;-67
2022/05/27 13:34:57;;;;;;;;;;;14.10;65.20;;;;;;5027485;28;20049;-67
2022/05/27 13:37:38;;;;;;;0.00;0.00;;;13.80;65.70;;;;;;5028282;28;19921;-66
2022/05/27 13:40:13;;;;;;;0.00;0.00;;;13.90;67.40;;;;;;5028280;28;20085;-66
2022/05/27 13:42:51;;;;;;;0.00;0.00;;;14.00;67.70;;;;;;5024564;28;20053;-66
2022/05/27 13:45:36;;;;;;;0.10;0.10;;;14.10;67.40;;;;;;5012662;28;20046;-66